Time,TemperatureF,DewpointF,PressureIn,WindDirection,WindDirectionDegrees,WindSpeedMPH,WindSpeedGustMPH,Humidity,HourlyPrecipIn,Conditions,Clouds,dailyrainin,SoftwareType,DateUTC
2014-09-01 01:22:00,75.0,75.0,-100.00,WSW,255,4.0,7.0,99,-99.99,,,-99.99,,2014-09-01 06:22:00,
2014-09-01 01:52:00,75.0,75.0,-100.00,SW,220,5.0,9.0,99,-99.99,,,-99.99,,2014-09-01 06:52:00,
2014-09-01 02:02:00,75.0,75.0,-100.00,SW,220,5.0,9.0,99,-99.99,,,-99.99,,2014-09-01 07:02:00,
2014-09-01 02:32:00,75.0,74.0,-100.00,SW,235,4.0,10.0,99,-99.99,,,-99.99,,2014-09-01 07:32:00,
2014-09-01 03:22:00,74.0,74.0,-100.00,WSW,245,5.0,12.0,99,-99.99,,,-99.99,,2014-09-01 08:22:00,
2014-09-01 03:52:00,74.0,74.0,-100.00,SW,230,4.0,14.0,99,-99.99,,,-99.99,,2014-09-01 08:52:00,
2014-09-01 04:02:00,74.0,74.0,-100.00,SW,230,4.0,14.0,99,-99.99,,,-99.99,,2014-09-01 09:02:00,
2014-09-01 04:22:00,75.0,75.0,-100.00,WSW,255,8.0,15.0,99,-99.99,,,-99.99,,2014-09-01 09:22:00,
2014-09-01 04:34:00,75.0,75.0,-100.00,WSW,255,8.0,15.0,99,-99.99,,,-99.99,,2014-09-01 09:34:00,
2014-09-01 04:54:00,75.0,75.0,-100.00,West,280,6.0,13.0,99,-99.99,,,-99.99,,2014-09-01 09:54:00,
2014-09-01 05:23:00,74.0,74.0,-100.00,NE,45,2.0,11.0,99,-99.99,,,-99.99,,2014-09-01 10:23:00,
2014-09-01 05:33:00,74.0,74.0,-100.00,NE,45,2.0,11.0,99,-99.99,,,-99.99,,2014-09-01 10:33:00,
2014-09-01 06:03:00,73.0,73.0,-100.00,North,-999,0.0,2.0,99,-99.99,,,-99.99,,2014-09-01 11:03:00,
2014-09-01 06:33:00,73.0,73.0,-100.00,South,175,2.0,8.0,99,-99.99,,,-99.99,,2014-09-01 11:33:00,
2014-09-01 06:52:00,74.0,74.0,-100.00,SW,230,3.0,6.0,99,-99.99,,,-99.99,,2014-09-01 11:52:00,
2014-09-01 07:03:00,74.0,74.0,-100.00,SW,230,3.0,6.0,99,-99.99,,,-99.99,,2014-09-01 12:03:00,
2014-09-01 07:22:00,75.0,75.0,-100.00,SSW,210,7.0,17.0,99,-99.99,,,-99.99,,2014-09-01 12:22:00,
2014-09-01 07:53:00,75.0,75.0,-100.00,SW,220,7.0,21.0,99,-99.99,,,-99.99,,2014-09-01 12:53:00,
2014-09-01 08:02:00,75.0,75.0,-100.00,SW,220,7.0,21.0,99,-99.99,,,-99.99,,2014-09-01 13:02:00,
2014-09-01 08:52:00,75.0,75.0,-100.00,West,260,10.0,17.0,99,-99.99,,,-99.99,,2014-09-01 13:52:00,
2014-09-01 09:33:00,76.0,75.0,-100.00,West,265,10.0,26.0,99,-99.99,,,-99.99,,2014-09-01 14:33:00,
2014-09-01 09:52:00,78.0,76.0,-100.00,West,270,14.0,22.0,95,-99.99,,,-99.99,,2014-09-01 14:52:00,